sensor_id;sensor_type;location;lat;lon;timestamp;P1;durP1;ratioP1;P2;durP2;ratioP2
30080;SDS011;16902;50.816;12.828;2024-01-27T00:04:21;1.60;;;1.50;;
30080;SDS011;16902;50.816;12.828;2024-01-27T00:09:22;0.65;;;0.65;;
30080;SDS011;16902;50.816;12.828;2024-01-27T00:14:24;0.77;;;0.77;;
30080;SDS011;16902;50.816;12.828;2024-01-27T00:19:26;0.68;;;0.68;;
30080;SDS011;16902;50.816;12.828;2024-01-27T00:24:28;0.75;;;0.75;;
30080;SDS011;16902;50.816;12.828;2024-01-27T00:29:30;0.70;;;0.70;;
30080;SDS011;16902;50.816;12.828;2024-01-27T00:34:31;0.60;;;0.60;;
30080;SDS011;16902;50.816;12.828;2024-01-27T00:39:33;2.50;;;1.05;;
30080;SDS011;16902;50.816;12.828;2024-01-27T00:44:35;7.88;;;1.00;;
30080;SDS011;16902;50.816;12.828;2024-01-27T00:49:36;1.23;;;1.17;;
30080;SDS011;16902;50.816;12.828;2024-01-27T00:54:38;1.10;;;1.10;;
30080;SDS011;16902;50.816;12.828;2024-01-27T00:59:40;1.17;;;1.17;;
30080;SDS011;16902;50.816;12.828;2024-01-27T01:04:41;1.00;;;1.00;;
30080;SDS011;16902;50.816;12.828;2024-01-27T01:09:43;1.55;;;1.52;;
30080;SDS011;16902;50.816;12.828;2024-01-27T01:14:45;1.10;;;1.10;;
30080;SDS011;16902;50.816;12.828;2024-01-27T01:19:47;1.60;;;1.50;;
30080;SDS011;16902;50.816;12.828;2024-01-27T01:24:49;1.55;;;1.45;;
30080;SDS011;16902;50.816;12.828;2024-01-27T01:29:50;1.27;;;1.27;;
30080;SDS011;16902;50.816;12.828;2024-01-27T01:34:52;1.38;;;1.38;;
30080;SDS011;16902;50.816;12.828;2024-01-27T01:39:53;1.90;;;1.85;;
30080;SDS011;16902;50.816;12.828;2024-01-27T01:44:55;1.90;;;1.90;;
30080;SDS011;16902;50.816;12.828;2024-01-27T01:49:57;2.00;;;2.00;;
30080;SDS011;16902;50.816;12.828;2024-01-27T01:54:59;1.90;;;1.90;;
30080;SDS011;16902;50.816;12.828;2024-01-27T02:00:01;2.30;;;2.20;;
30080;SDS011;16902;50.816;12.828;2024-01-27T02:05:12;2.00;;;1.77;;
30080;SDS011;16902;50.816;12.828;2024-01-27T02:10:15;1.77;;;1.77;;
30080;SDS011;16902;50.816;12.828;2024-01-27T02:15:17;2.15;;;2.05;;
30080;SDS011;16902;50.816;12.828;2024-01-27T02:20:19;1.60;;;1.60;;
30080;SDS011;16902;50.816;12.828;2024-01-27T02:25:21;1.70;;;1.70;;
30080;SDS011;16902;50.816;12.828;2024-01-27T02:30:22;1.85;;;1.80;;
30080;SDS011;16902;50.816;12.828;2024-01-27T02:35:24;2.22;;;2.13;;
30080;SDS011;16902;50.816;12.828;2024-01-27T02:40:26;2.15;;;2.05;;
30080;SDS011;16902;50.816;12.828;2024-01-27T02:45:28;1.35;;;1.35;;
30080;SDS011;16902;50.816;12.828;2024-01-27T02:50:30;1.40;;;1.40;;
30080;SDS011;16902;50.816;12.828;2024-01-27T02:55:31;3.70;;;1.52;;
30080;SDS011;16902;50.816;12.828;2024-01-27T03:00:33;1.85;;;1.75;;
30080;SDS011;16902;50.816;12.828;2024-01-27T03:05:35;2.00;;;1.30;;
30080;SDS011;16902;50.816;12.828;2024-01-27T03:10:37;1.33;;;1.33;;
30080;SDS011;16902;50.816;12.828;2024-01-27T03:15:38;1.08;;;1.08;;
30080;SDS011;16902;50.816;12.828;2024-01-27T03:20:40;1.55;;;1.45;;
30080;SDS011;16902;50.816;12.828;2024-01-27T03:25:42;1.30;;;1.30;;
30080;SDS011;16902;50.816;12.828;2024-01-27T03:30:44;1.50;;;1.50;;
30080;SDS011;16902;50.816;12.828;2024-01-27T03:35:45;8.98;;;1.50;;
30080;SDS011;16902;50.816;12.828;2024-01-27T03:40:47;1.73;;;1.63;;
30080;SDS011;16902;50.816;12.828;2024-01-27T03:45:49;1.67;;;1.58;;
30080;SDS011;16902;50.816;12.828;2024-01-27T03:50:50;1.75;;;1.70;;
30080;SDS011;16902;50.816;12.828;2024-01-27T03:55:52;1.15;;;1.15;;
30080;SDS011;16902;50.816;12.828;2024-01-27T04:00:54;1.13;;;1.13;;
30080;SDS011;16902;50.816;12.828;2024-01-27T04:05:56;1.20;;;1.20;;
30080;SDS011;16902;50.816;12.828;2024-01-27T04:10:58;1.30;;;1.30;;
30080;SDS011;16902;50.816;12.828;2024-01-27T04:15:59;1.30;;;1.30;;
30080;SDS011;16902;50.816;12.828;2024-01-27T04:21:02;1.10;;;1.10;;
30080;SDS011;16902;50.816;12.828;2024-01-27T04:26:04;5.68;;;1.70;;
30080;SDS011;16902;50.816;12.828;2024-01-27T04:31:08;1.38;;;1.38;;
30080;SDS011;16902;50.816;12.828;2024-01-27T04:36:10;1.65;;;1.23;;
30080;SDS011;16902;50.816;12.828;2024-01-27T04:41:12;1.25;;;1.25;;
30080;SDS011;16902;50.816;12.828;2024-01-27T04:46:14;1.20;;;1.20;;
30080;SDS011;16902;50.816;12.828;2024-01-27T04:51:16;4.32;;;1.90;;
30080;SDS011;16902;50.816;12.828;2024-01-27T04:56:18;1.95;;;1.85;;
30080;SDS011;16902;50.816;12.828;2024-01-27T05:01:20;1.38;;;1.38;;
30080;SDS011;16902;50.816;12.828;2024-01-27T05:06:22;1.55;;;1.55;;
30080;SDS011;16902;50.816;12.828;2024-01-27T05:11:25;1.30;;;1.30;;
30080;SDS011;16902;50.816;12.828;2024-01-27T05:16:29;1.50;;;1.50;;
30080;SDS011;16902;50.816;12.828;2024-01-27T05:21:31;1.10;;;1.10;;
30080;SDS011;16902;50.816;12.828;2024-01-27T05:26:33;1.02;;;1.02;;
30080;SDS011;16902;50.816;12.828;2024-01-27T05:31:35;1.58;;;1.58;;
30080;SDS011;16902;50.816;12.828;2024-01-27T05:36:36;1.10;;;1.10;;
30080;SDS011;16902;50.816;12.828;2024-01-27T05:41:38;1.83;;;1.73;;
30080;SDS011;16902;50.816;12.828;2024-01-27T05:46:40;1.02;;;1.02;;
30080;SDS011;16902;50.816;12.828;2024-01-27T05:51:42;1.45;;;1.35;;
30080;SDS011;16902;50.816;12.828;2024-01-27T05:56:45;1.00;;;1.00;;
30080;SDS011;16902;50.816;12.828;2024-01-27T06:01:46;2.05;;;1.58;;
30080;SDS011;16902;50.816;12.828;2024-01-27T06:06:49;1.20;;;1.17;;
30080;SDS011;16902;50.816;12.828;2024-01-27T06:11:51;1.00;;;1.00;;
30080;SDS011;16902;50.816;12.828;2024-01-27T06:16:53;13.65;;;1.50;;
30080;SDS011;16902;50.816;12.828;2024-01-27T06:21:55;0.90;;;0.90;;
30080;SDS011;16902;50.816;12.828;2024-01-27T06:26:56;0.90;;;0.90;;
30080;SDS011;16902;50.816;12.828;2024-01-27T06:31:58;1.05;;;1.05;;
30080;SDS011;16902;50.816;12.828;2024-01-27T06:37:00;1.38;;;1.27;;
30080;SDS011;16902;50.816;12.828;2024-01-27T06:42:03;1.27;;;1.23;;
30080;SDS011;16902;50.816;12.828;2024-01-27T06:47:04;1.25;;;1.25;;
30080;SDS011;16902;50.816;12.828;2024-01-27T06:52:06;1.17;;;1.17;;
30080;SDS011;16902;50.816;12.828;2024-01-27T06:57:17;0.90;;;0.90;;
30080;SDS011;16902;50.816;12.828;2024-01-27T07:02:26;1.52;;;1.45;;
30080;SDS011;16902;50.816;12.828;2024-01-27T07:07:30;1.13;;;1.13;;
30080;SDS011;16902;50.816;12.828;2024-01-27T07:12:32;1.33;;;1.33;;
30080;SDS011;16902;50.816;12.828;2024-01-27T07:17:34;1.00;;;1.00;;
30080;SDS011;16902;50.816;12.828;2024-01-27T07:22:36;1.75;;;1.67;;
30080;SDS011;16902;50.816;12.828;2024-01-27T07:27:38;1.33;;;1.33;;
30080;SDS011;16902;50.816;12.828;2024-01-27T07:32:40;1.75;;;1.35;;
30080;SDS011;16902;50.816;12.828;2024-01-27T07:37:42;0.85;;;0.85;;
30080;SDS011;16902;50.816;12.828;2024-01-27T07:42:44;1.92;;;1.67;;
30080;SDS011;16902;50.816;12.828;2024-01-27T07:47:46;1.33;;;1.33;;
30080;SDS011;16902;50.816;12.828;2024-01-27T07:52:48;0.80;;;0.80;;
30080;SDS011;16902;50.816;12.828;2024-01-27T07:57:50;1.70;;;1.60;;
30080;SDS011;16902;50.816;12.828;2024-01-27T08:02:52;1.30;;;1.30;;
30080;SDS011;16902;50.816;12.828;2024-01-27T08:07:54;1.23;;;1.13;;
30080;SDS011;16902;50.816;12.828;2024-01-27T08:12:56;1.23;;;1.23;;
30080;SDS011;16902;50.816;12.828;2024-01-27T08:17:58;1.52;;;1.52;;
30080;SDS011;16902;50.816;12.828;2024-01-27T08:23:00;1.55;;;1.52;;
30080;SDS011;16902;50.816;12.828;2024-01-27T08:28:06;1.42;;;1.42;;
30080;SDS011;16902;50.816;12.828;2024-01-27T08:33:08;1.25;;;1.25;;
30080;SDS011;16902;50.816;12.828;2024-01-27T08:38:10;1.30;;;1.30;;
30080;SDS011;16902;50.816;12.828;2024-01-27T08:43:12;1.23;;;1.23;;
30080;SDS011;16902;50.816;12.828;2024-01-27T08:48:14;2.67;;;1.92;;
30080;SDS011;16902;50.816;12.828;2024-01-27T08:53:18;1.58;;;1.38;;
30080;SDS011;16902;50.816;12.828;2024-01-27T08:58:20;1.67;;;1.55;;
30080;SDS011;16902;50.816;12.828;2024-01-27T09:03:22;1.67;;;1.63;;
30080;SDS011;16902;50.816;12.828;2024-01-27T09:08:23;2.40;;;1.75;;
30080;SDS011;16902;50.816;12.828;2024-01-27T09:13:26;2.20;;;2.03;;
30080;SDS011;16902;50.816;12.828;2024-01-27T09:18:28;1.90;;;1.83;;
30080;SDS011;16902;50.816;12.828;2024-01-27T09:23:30;2.38;;;2.28;;
30080;SDS011;16902;50.816;12.828;2024-01-27T09:28:32;1.98;;;1.88;;
30080;SDS011;16902;50.816;12.828;2024-01-27T09:33:34;1.77;;;1.77;;
30080;SDS011;16902;50.816;12.828;2024-01-27T09:38:37;1.98;;;1.98;;
30080;SDS011;16902;50.816;12.828;2024-01-27T09:43:42;1.70;;;1.70;;
30080;SDS011;16902;50.816;12.828;2024-01-27T09:48:46;2.53;;;2.42;;
30080;SDS011;16902;50.816;12.828;2024-01-27T09:53:48;3.00;;;2.75;;
30080;SDS011;16902;50.816;12.828;2024-01-27T09:58:54;2.47;;;2.38;;
30080;SDS011;16902;50.816;12.828;2024-01-27T10:03:57;3.45;;;2.42;;
30080;SDS011;16902;50.816;12.828;2024-01-27T10:08:59;2.38;;;2.28;;
30080;SDS011;16902;50.816;12.828;2024-01-27T10:14:01;2.33;;;2.22;;
30080;SDS011;16902;50.816;12.828;2024-01-27T10:19:04;2.65;;;2.55;;
30080;SDS011;16902;50.816;12.828;2024-01-27T10:24:06;2.58;;;2.20;;
30080;SDS011;16902;50.816;12.828;2024-01-27T10:29:09;2.70;;;2.60;;
30080;SDS011;16902;50.816;12.828;2024-01-27T10:34:12;3.20;;;3.10;;
30080;SDS011;16902;50.816;12.828;2024-01-27T10:39:20;2.53;;;2.42;;
30080;SDS011;16902;50.816;12.828;2024-01-27T10:44:24;3.08;;;2.97;;
30080;SDS011;16902;50.816;12.828;2024-01-27T10:49:27;3.70;;;2.83;;
30080;SDS011;16902;50.816;12.828;2024-01-27T10:54:33;2.80;;;2.70;;
30080;SDS011;16902;50.816;12.828;2024-01-27T10:59:37;2.75;;;2.65;;
30080;SDS011;16902;50.816;12.828;2024-01-27T11:04:42;3.03;;;2.92;;
30080;SDS011;16902;50.816;12.828;2024-01-27T11:09:44;4.60;;;3.85;;
30080;SDS011;16902;50.816;12.828;2024-01-27T11:14:49;5.50;;;4.97;;
30080;SDS011;16902;50.816;12.828;2024-01-27T11:19:53;5.10;;;4.90;;
30080;SDS011;16902;50.816;12.828;2024-01-27T11:35:29;8.27;;;7.93;;
30080;SDS011;16902;50.816;12.828;2024-01-27T11:40:31;9.50;;;9.20;;
30080;SDS011;16902;50.816;12.828;2024-01-27T11:45:34;10.60;;;10.07;;
30080;SDS011;16902;50.816;12.828;2024-01-27T11:50:36;10.85;;;10.45;;
30080;SDS011;16902;50.816;12.828;2024-01-27T11:55:38;11.68;;;10.75;;
30080;SDS011;16902;50.816;12.828;2024-01-27T12:00:44;12.55;;;11.95;;
30080;SDS011;16902;50.816;12.828;2024-01-27T12:05:46;13.13;;;11.88;;
30080;SDS011;16902;50.816;12.828;2024-01-27T12:10:48;12.48;;;11.98;;
30080;SDS011;16902;50.816;12.828;2024-01-27T12:15:51;12.63;;;12.13;;
30080;SDS011;16902;50.816;12.828;2024-01-27T12:20:56;13.55;;;13.05;;
30080;SDS011;16902;50.816;12.828;2024-01-27T12:26:01;14.00;;;13.40;;
30080;SDS011;16902;50.816;12.828;2024-01-27T12:31:03;14.20;;;13.60;;
30080;SDS011;16902;50.816;12.828;2024-01-27T12:36:07;15.65;;;14.57;;
30080;SDS011;16902;50.816;12.828;2024-01-27T12:41:09;15.50;;;14.80;;
30080;SDS011;16902;50.816;12.828;2024-01-27T12:46:11;15.50;;;14.73;;
30080;SDS011;16902;50.816;12.828;2024-01-27T12:51:13;15.98;;;15.27;;
30080;SDS011;16902;50.816;12.828;2024-01-27T12:56:16;16.48;;;15.77;;
30080;SDS011;16902;50.816;12.828;2024-01-27T13:01:18;17.48;;;16.58;;
30080;SDS011;16902;50.816;12.828;2024-01-27T13:06:20;17.70;;;16.70;;
30080;SDS011;16902;50.816;12.828;2024-01-27T13:11:24;17.52;;;16.40;;
30080;SDS011;16902;50.816;12.828;2024-01-27T13:16:28;17.83;;;16.73;;
30080;SDS011;16902;50.816;12.828;2024-01-27T13:21:30;17.73;;;16.92;;
30080;SDS011;16902;50.816;12.828;2024-01-27T13:26:32;17.80;;;16.90;;
30080;SDS011;16902;50.816;12.828;2024-01-27T13:31:39;16.63;;;15.93;;
30080;SDS011;16902;50.816;12.828;2024-01-27T13:36:41;15.98;;;15.27;;
30080;SDS011;16902;50.816;12.828;2024-01-27T13:41:43;15.18;;;14.57;;
30080;SDS011;16902;50.816;12.828;2024-01-27T13:46:44;14.48;;;13.93;;
30080;SDS011;16902;50.816;12.828;2024-01-27T13:51:46;14.20;;;13.60;;
30080;SDS011;16902;50.816;12.828;2024-01-27T13:56:48;14.10;;;13.60;;
30080;SDS011;16902;50.816;12.828;2024-01-27T14:01:50;13.95;;;13.35;;
30080;SDS011;16902;50.816;12.828;2024-01-27T14:06:52;13.77;;;13.18;;
30080;SDS011;16902;50.816;12.828;2024-01-27T14:11:55;13.70;;;13.20;;
30080;SDS011;16902;50.816;12.828;2024-01-27T14:16:57;12.95;;;12.45;;
30080;SDS011;16902;50.816;12.828;2024-01-27T14:21:59;12.57;;;12.07;;
30080;SDS011;16902;50.816;12.828;2024-01-27T14:27:01;12.32;;;11.93;;
30080;SDS011;16902;50.816;12.828;2024-01-27T14:32:03;12.45;;;11.95;;
30080;SDS011;16902;50.816;12.828;2024-01-27T14:37:05;12.48;;;11.95;;
30080;SDS011;16902;50.816;12.828;2024-01-27T14:42:14;13.60;;;13.00;;
30080;SDS011;16902;50.816;12.828;2024-01-27T14:47:19;12.95;;;12.38;;
30080;SDS011;16902;50.816;12.828;2024-01-27T14:52:22;12.25;;;11.77;;
30080;SDS011;16902;50.816;12.828;2024-01-27T14:57:25;11.77;;;11.38;;
30080;SDS011;16902;50.816;12.828;2024-01-27T15:02:27;11.38;;;10.98;;
30080;SDS011;16902;50.816;12.828;2024-01-27T15:07:31;10.90;;;10.50;;
30080;SDS011;16902;50.816;12.828;2024-01-27T15:12:33;11.60;;;11.10;;
30080;SDS011;16902;50.816;12.828;2024-01-27T15:17:35;10.68;;;10.18;;
30080;SDS011;16902;50.816;12.828;2024-01-27T15:22:37;9.90;;;9.50;;
30080;SDS011;16902;50.816;12.828;2024-01-27T15:27:39;9.95;;;9.25;;
30080;SDS011;16902;50.816;12.828;2024-01-27T15:32:42;8.27;;;7.97;;
30080;SDS011;16902;50.816;12.828;2024-01-27T15:37:44;8.65;;;8.10;;
30080;SDS011;16902;50.816;12.828;2024-01-27T15:42:46;6.63;;;6.43;;
30080;SDS011;16902;50.816;12.828;2024-01-27T15:47:48;6.35;;;6.05;;
30080;SDS011;16902;50.816;12.828;2024-01-27T15:52:50;5.88;;;5.40;;
30080;SDS011;16902;50.816;12.828;2024-01-27T15:57:52;5.72;;;5.32;;
30080;SDS011;16902;50.816;12.828;2024-01-27T16:02:54;5.82;;;5.63;;
30080;SDS011;16902;50.816;12.828;2024-01-27T16:07:56;5.22;;;4.93;;
30080;SDS011;16902;50.816;12.828;2024-01-27T16:13:00;6.15;;;5.65;;
30080;SDS011;16902;50.816;12.828;2024-01-27T16:18:02;3.58;;;3.45;;
30080;SDS011;16902;50.816;12.828;2024-01-27T16:23:04;4.00;;;3.80;;
30080;SDS011;16902;50.816;12.828;2024-01-27T16:28:07;4.13;;;3.70;;
30080;SDS011;16902;50.816;12.828;2024-01-27T16:33:08;14.45;;;8.48;;
30080;SDS011;16902;50.816;12.828;2024-01-27T16:38:10;2.35;;;2.25;;
30080;SDS011;16902;50.816;12.828;2024-01-27T16:43:12;8.93;;;4.55;;
30080;SDS011;16902;50.816;12.828;2024-01-27T16:48:14;10.25;;;7.00;;
30080;SDS011;16902;50.816;12.828;2024-01-27T16:53:16;3.30;;;3.10;;
30080;SDS011;16902;50.816;12.828;2024-01-27T16:58:18;3.60;;;3.20;;
30080;SDS011;16902;50.816;12.828;2024-01-27T17:03:20;4.57;;;4.00;;
30080;SDS011;16902;50.816;12.828;2024-01-27T17:08:22;4.68;;;4.03;;
30080;SDS011;16902;50.816;12.828;2024-01-27T17:13:24;3.88;;;3.67;;
30080;SDS011;16902;50.816;12.828;2024-01-27T17:18:25;4.93;;;3.40;;
30080;SDS011;16902;50.816;12.828;2024-01-27T17:23:27;7.32;;;3.75;;
30080;SDS011;16902;50.816;12.828;2024-01-27T17:28:32;4.95;;;4.18;;
30080;SDS011;16902;50.816;12.828;2024-01-27T17:33:34;3.30;;;3.17;;
30080;SDS011;16902;50.816;12.828;2024-01-27T17:38:36;4.45;;;3.90;;
30080;SDS011;16902;50.816;12.828;2024-01-27T17:43:38;4.22;;;3.65;;
30080;SDS011;16902;50.816;12.828;2024-01-27T17:48:40;5.10;;;4.60;;
30080;SDS011;16902;50.816;12.828;2024-01-27T17:53:42;2.78;;;2.58;;
30080;SDS011;16902;50.816;12.828;2024-01-27T17:58:46;9.77;;;8.77;;
30080;SDS011;16902;50.816;12.828;2024-01-27T18:03:47;17.83;;;7.55;;
30080;SDS011;16902;50.816;12.828;2024-01-27T18:08:49;5.82;;;4.55;;
30080;SDS011;16902;50.816;12.828;2024-01-27T18:13:51;3.33;;;3.10;;
30080;SDS011;16902;50.816;12.828;2024-01-27T18:18:53;5.60;;;4.15;;
30080;SDS011;16902;50.816;12.828;2024-01-27T18:23:54;3.60;;;3.30;;
30080;SDS011;16902;50.816;12.828;2024-01-27T18:28:56;4.55;;;4.18;;
30080;SDS011;16902;50.816;12.828;2024-01-27T18:33:58;5.15;;;4.07;;
30080;SDS011;16902;50.816;12.828;2024-01-27T18:39:02;4.88;;;4.00;;
30080;SDS011;16902;50.816;12.828;2024-01-27T18:44:04;8.18;;;6.20;;
30080;SDS011;16902;50.816;12.828;2024-01-27T18:49:05;9.00;;;7.45;;
30080;SDS011;16902;50.816;12.828;2024-01-27T18:54:08;5.50;;;5.00;;
30080;SDS011;16902;50.816;12.828;2024-01-27T18:59:12;7.68;;;4.75;;
30080;SDS011;16902;50.816;12.828;2024-01-27T19:04:14;9.07;;;6.45;;
30080;SDS011;16902;50.816;12.828;2024-01-27T19:09:16;6.85;;;6.18;;
30080;SDS011;16902;50.816;12.828;2024-01-27T19:14:17;4.78;;;4.47;;
30080;SDS011;16902;50.816;12.828;2024-01-27T19:19:19;4.28;;;3.92;;
30080;SDS011;16902;50.816;12.828;2024-01-27T19:24:22;14.23;;;10.77;;
30080;SDS011;16902;50.816;12.828;2024-01-27T19:29:24;10.30;;;7.28;;
30080;SDS011;16902;50.816;12.828;2024-01-27T19:34:29;7.90;;;5.30;;
30080;SDS011;16902;50.816;12.828;2024-01-27T19:39:32;7.53;;;6.75;;
30080;SDS011;16902;50.816;12.828;2024-01-27T19:44:37;6.30;;;5.75;;
30080;SDS011;16902;50.816;12.828;2024-01-27T19:49:39;8.18;;;6.25;;
30080;SDS011;16902;50.816;12.828;2024-01-27T19:54:41;5.93;;;5.38;;
30080;SDS011;16902;50.816;12.828;2024-01-27T19:59:42;8.93;;;5.53;;
30080;SDS011;16902;50.816;12.828;2024-01-27T20:04:44;4.25;;;3.92;;
30080;SDS011;16902;50.816;12.828;2024-01-27T20:09:49;3.47;;;3.22;;
30080;SDS011;16902;50.816;12.828;2024-01-27T20:14:50;7.18;;;3.92;;
30080;SDS011;16902;50.816;12.828;2024-01-27T20:19:52;3.53;;;3.33;;
30080;SDS011;16902;50.816;12.828;2024-01-27T20:24:57;7.47;;;6.00;;
30080;SDS011;16902;50.816;12.828;2024-01-27T20:29:59;7.87;;;5.30;;
30080;SDS011;16902;50.816;12.828;2024-01-27T20:35:01;8.48;;;4.90;;
30080;SDS011;16902;50.816;12.828;2024-01-27T20:40:05;3.97;;;3.75;;
30080;SDS011;16902;50.816;12.828;2024-01-27T20:45:07;8.13;;;5.17;;
30080;SDS011;16902;50.816;12.828;2024-01-27T20:50:09;3.77;;;3.47;;
30080;SDS011;16902;50.816;12.828;2024-01-27T20:55:11;5.22;;;4.15;;
30080;SDS011;16902;50.816;12.828;2024-01-27T21:00:13;5.77;;;4.27;;
30080;SDS011;16902;50.816;12.828;2024-01-27T21:05:15;4.53;;;3.30;;
30080;SDS011;16902;50.816;12.828;2024-01-27T21:10:16;4.30;;;4.00;;
30080;SDS011;16902;50.816;12.828;2024-01-27T21:15:18;3.42;;;3.13;;
30080;SDS011;16902;50.816;12.828;2024-01-27T21:20:20;4.47;;;4.07;;
30080;SDS011;16902;50.816;12.828;2024-01-27T21:25:22;4.13;;;3.45;;
30080;SDS011;16902;50.816;12.828;2024-01-27T21:30:23;3.30;;;3.10;;
30080;SDS011;16902;50.816;12.828;2024-01-27T21:35:25;5.03;;;4.30;;
30080;SDS011;16902;50.816;12.828;2024-01-27T21:40:27;7.17;;;4.33;;
30080;SDS011;16902;50.816;12.828;2024-01-27T21:45:28;9.73;;;5.32;;
30080;SDS011;16902;50.816;12.828;2024-01-27T21:50:31;9.27;;;3.50;;
30080;SDS011;16902;50.816;12.828;2024-01-27T21:55:34;3.40;;;3.15;;
30080;SDS011;16902;50.816;12.828;2024-01-27T22:00:38;2.53;;;2.37;;
30080;SDS011;16902;50.816;12.828;2024-01-27T22:05:40;3.53;;;3.33;;
30080;SDS011;16902;50.816;12.828;2024-01-27T22:10:42;4.20;;;3.80;;
30080;SDS011;16902;50.816;12.828;2024-01-27T22:15:45;4.50;;;4.10;;
30080;SDS011;16902;50.816;12.828;2024-01-27T22:20:47;2.97;;;2.77;;
30080;SDS011;16902;50.816;12.828;2024-01-27T22:25:49;5.47;;;5.07;;
30080;SDS011;16902;50.816;12.828;2024-01-27T22:30:51;5.40;;;3.55;;
30080;SDS011;16902;50.816;12.828;2024-01-27T22:35:56;5.03;;;3.07;;
30080;SDS011;16902;50.816;12.828;2024-01-27T22:40:58;2.60;;;2.37;;
30080;SDS011;16902;50.816;12.828;2024-01-27T22:46:01;3.50;;;3.30;;
30080;SDS011;16902;50.816;12.828;2024-01-27T22:51:03;1.83;;;1.73;;
30080;SDS011;16902;50.816;12.828;2024-01-27T22:56:05;3.03;;;2.83;;
30080;SDS011;16902;50.816;12.828;2024-01-27T23:01:08;2.90;;;2.70;;
30080;SDS011;16902;50.816;12.828;2024-01-27T23:06:13;5.00;;;3.67;;
30080;SDS011;16902;50.816;12.828;2024-01-27T23:11:15;2.47;;;2.37;;
30080;SDS011;16902;50.816;12.828;2024-01-27T23:16:18;2.90;;;2.60;;
30080;SDS011;16902;50.816;12.828;2024-01-27T23:21:20;3.23;;;1.63;;
30080;SDS011;16902;50.816;12.828;2024-01-27T23:26:22;3.70;;;3.43;;
30080;SDS011;16902;50.816;12.828;2024-01-27T23:31:24;3.97;;;2.63;;
30080;SDS011;16902;50.816;12.828;2024-01-27T23:36:26;3.00;;;2.77;;
30080;SDS011;16902;50.816;12.828;2024-01-27T23:41:28;3.03;;;2.83;;
30080;SDS011;16902;50.816;12.828;2024-01-27T23:46:30;2.67;;;2.47;;
30080;SDS011;16902;50.816;12.828;2024-01-27T23:51:32;5.00;;;2.30;;
30080;SDS011;16902;50.816;12.828;2024-01-27T23:56:36;4.50;;;2.90;;
